sensor_id;sensor_type;location;lat;lon;timestamp;P1;durP1;ratioP1;P2;durP2;ratioP2
78224;SDS011;67498;53.650;10.090;2024-02-14T00:01:14;2.93;;;0.60;;
78224;SDS011;67498;53.650;10.090;2024-02-14T00:03:39;3.57;;;1.00;;
78224;SDS011;67498;53.650;10.090;2024-02-14T00:06:05;5.13;;;1.67;;
78224;SDS011;67498;53.650;10.090;2024-02-14T00:08:30;3.40;;;0.65;;
78224;SDS011;67498;53.650;10.090;2024-02-14T00:10:56;4.72;;;1.02;;
78224;SDS011;67498;53.650;10.090;2024-02-14T00:13:21;3.90;;;0.63;;
78224;SDS011;67498;53.650;10.090;2024-02-14T00:15:46;3.90;;;1.03;;
78224;SDS011;67498;53.650;10.090;2024-02-14T00:18:12;3.30;;;0.87;;
78224;SDS011;67498;53.650;10.090;2024-02-14T00:20:37;4.93;;;1.20;;
78224;SDS011;67498;53.650;10.090;2024-02-14T00:23:04;3.53;;;0.75;;
78224;SDS011;67498;53.650;10.090;2024-02-14T00:25:29;5.45;;;1.10;;
78224;SDS011;67498;53.650;10.090;2024-02-14T00:27:55;4.23;;;0.70;;
78224;SDS011;67498;53.650;10.090;2024-02-14T00:30:20;3.30;;;0.80;;
78224;SDS011;67498;53.650;10.090;2024-02-14T00:32:48;4.57;;;1.02;;
78224;SDS011;67498;53.650;10.090;2024-02-14T00:35:13;4.50;;;1.00;;
78224;SDS011;67498;53.650;10.090;2024-02-14T00:37:38;5.50;;;0.80;;
78224;SDS011;67498;53.650;10.090;2024-02-14T00:40:04;4.77;;;1.43;;
78224;SDS011;67498;53.650;10.090;2024-02-14T00:42:30;4.97;;;0.95;;
78224;SDS011;67498;53.650;10.090;2024-02-14T00:44:56;4.80;;;0.70;;
78224;SDS011;67498;53.650;10.090;2024-02-14T00:47:21;5.82;;;0.95;;
78224;SDS011;67498;53.650;10.090;2024-02-14T00:49:47;5.87;;;1.23;;
78224;SDS011;67498;53.650;10.090;2024-02-14T00:52:12;3.20;;;0.70;;
78224;SDS011;67498;53.650;10.090;2024-02-14T00:54:37;3.60;;;0.60;;
78224;SDS011;67498;53.650;10.090;2024-02-14T00:57:03;3.43;;;0.63;;
78224;SDS011;67498;53.650;10.090;2024-02-14T00:59:28;4.90;;;0.63;;
78224;SDS011;67498;53.650;10.090;2024-02-14T01:01:53;5.53;;;0.80;;
78224;SDS011;67498;53.650;10.090;2024-02-14T01:04:18;3.53;;;1.03;;
78224;SDS011;67498;53.650;10.090;2024-02-14T01:06:44;4.13;;;0.80;;
78224;SDS011;67498;53.650;10.090;2024-02-14T01:09:09;3.63;;;0.90;;
78224;SDS011;67498;53.650;10.090;2024-02-14T01:11:34;3.25;;;0.75;;
78224;SDS011;67498;53.650;10.090;2024-02-14T01:14:00;4.13;;;0.67;;
78224;SDS011;67498;53.650;10.090;2024-02-14T01:16:26;3.75;;;0.70;;
78224;SDS011;67498;53.650;10.090;2024-02-14T01:18:52;4.20;;;0.93;;
78224;SDS011;67498;53.650;10.090;2024-02-14T01:21:17;3.30;;;0.60;;
78224;SDS011;67498;53.650;10.090;2024-02-14T01:23:42;3.87;;;0.77;;
78224;SDS011;67498;53.650;10.090;2024-02-14T01:26:08;2.97;;;0.50;;
78224;SDS011;67498;53.650;10.090;2024-02-14T01:28:33;2.77;;;0.67;;
78224;SDS011;67498;53.650;10.090;2024-02-14T01:30:58;8.47;;;0.83;;
78224;SDS011;67498;53.650;10.090;2024-02-14T01:33:24;5.63;;;1.03;;
78224;SDS011;67498;53.650;10.090;2024-02-14T01:35:49;5.37;;;0.90;;
78224;SDS011;67498;53.650;10.090;2024-02-14T01:38:14;2.70;;;0.70;;
78224;SDS011;67498;53.650;10.090;2024-02-14T01:40:43;4.00;;;0.80;;
78224;SDS011;67498;53.650;10.090;2024-02-14T01:43:09;4.18;;;0.80;;
78224;SDS011;67498;53.650;10.090;2024-02-14T01:45:38;3.55;;;0.90;;
78224;SDS011;67498;53.650;10.090;2024-02-14T01:48:04;3.87;;;0.60;;
78224;SDS011;67498;53.650;10.090;2024-02-14T01:50:31;4.55;;;0.70;;
78224;SDS011;67498;53.650;10.090;2024-02-14T01:52:57;6.00;;;0.65;;
78224;SDS011;67498;53.650;10.090;2024-02-14T01:55:24;2.70;;;0.57;;
78224;SDS011;67498;53.650;10.090;2024-02-14T01:57:51;5.78;;;0.85;;
78224;SDS011;67498;53.650;10.090;2024-02-14T02:00:17;3.22;;;0.73;;
78224;SDS011;67498;53.650;10.090;2024-02-14T02:02:43;4.27;;;1.00;;
78224;SDS011;67498;53.650;10.090;2024-02-14T02:05:09;5.03;;;0.70;;
78224;SDS011;67498;53.650;10.090;2024-02-14T02:07:34;6.23;;;1.80;;
78224;SDS011;67498;53.650;10.090;2024-02-14T02:10:00;6.00;;;0.97;;
78224;SDS011;67498;53.650;10.090;2024-02-14T02:12:26;2.90;;;0.70;;
78224;SDS011;67498;53.650;10.090;2024-02-14T02:14:52;3.75;;;0.85;;
78224;SDS011;67498;53.650;10.090;2024-02-14T02:17:17;2.70;;;0.50;;
78224;SDS011;67498;53.650;10.090;2024-02-14T02:19:42;2.67;;;0.53;;
78224;SDS011;67498;53.650;10.090;2024-02-14T02:22:08;3.25;;;0.90;;
78224;SDS011;67498;53.650;10.090;2024-02-14T02:24:34;3.25;;;0.75;;
78224;SDS011;67498;53.650;10.090;2024-02-14T02:27:00;8.53;;;0.90;;
78224;SDS011;67498;53.650;10.090;2024-02-14T02:29:26;3.00;;;0.77;;
78224;SDS011;67498;53.650;10.090;2024-02-14T02:31:51;2.43;;;0.53;;
78224;SDS011;67498;53.650;10.090;2024-02-14T02:34:17;4.43;;;1.20;;
78224;SDS011;67498;53.650;10.090;2024-02-14T02:36:43;4.85;;;1.77;;
78224;SDS011;67498;53.650;10.090;2024-02-14T02:39:08;7.23;;;1.20;;
78224;SDS011;67498;53.650;10.090;2024-02-14T02:41:34;7.78;;;1.02;;
78224;SDS011;67498;53.650;10.090;2024-02-14T02:43:59;2.60;;;0.60;;
78224;SDS011;67498;53.650;10.090;2024-02-14T02:46:26;3.03;;;0.80;;
78224;SDS011;67498;53.650;10.090;2024-02-14T02:48:52;3.10;;;0.73;;
78224;SDS011;67498;53.650;10.090;2024-02-14T02:51:19;5.13;;;1.08;;
78224;SDS011;67498;53.650;10.090;2024-02-14T02:53:45;6.87;;;1.00;;
78224;SDS011;67498;53.650;10.090;2024-02-14T02:56:10;17.00;;;1.53;;
78224;SDS011;67498;53.650;10.090;2024-02-14T02:58:37;3.25;;;0.75;;
78224;SDS011;67498;53.650;10.090;2024-02-14T03:01:03;3.50;;;0.80;;
78224;SDS011;67498;53.650;10.090;2024-02-14T03:03:32;3.08;;;0.68;;
78224;SDS011;67498;53.650;10.090;2024-02-14T03:05:58;3.80;;;0.90;;
78224;SDS011;67498;53.650;10.090;2024-02-14T03:08:24;4.38;;;1.15;;
78224;SDS011;67498;53.650;10.090;2024-02-14T03:10:50;5.50;;;0.90;;
78224;SDS011;67498;53.650;10.090;2024-02-14T03:13:16;4.15;;;1.05;;
78224;SDS011;67498;53.650;10.090;2024-02-14T03:15:42;8.30;;;1.20;;
78224;SDS011;67498;53.650;10.090;2024-02-14T03:18:08;4.88;;;0.90;;
78224;SDS011;67498;53.650;10.090;2024-02-14T03:20:35;5.32;;;1.20;;
78224;SDS011;67498;53.650;10.090;2024-02-14T03:23:01;3.53;;;0.90;;
78224;SDS011;67498;53.650;10.090;2024-02-14T03:25:29;4.55;;;1.02;;
78224;SDS011;67498;53.650;10.090;2024-02-14T03:27:54;3.83;;;0.83;;
78224;SDS011;67498;53.650;10.090;2024-02-14T03:30:22;4.63;;;1.02;;
78224;SDS011;67498;53.650;10.090;2024-02-14T03:32:47;6.57;;;1.00;;
78224;SDS011;67498;53.650;10.090;2024-02-14T03:35:13;5.03;;;0.80;;
78224;SDS011;67498;53.650;10.090;2024-02-14T03:37:38;4.40;;;1.10;;
78224;SDS011;67498;53.650;10.090;2024-02-14T03:40:05;5.50;;;1.40;;
78224;SDS011;67498;53.650;10.090;2024-02-14T03:42:32;4.13;;;1.00;;
78224;SDS011;67498;53.650;10.090;2024-02-14T03:44:57;5.55;;;1.15;;
78224;SDS011;67498;53.650;10.090;2024-02-14T03:47:27;5.53;;;1.05;;
78224;SDS011;67498;53.650;10.090;2024-02-14T03:49:54;3.92;;;1.00;;
78224;SDS011;67498;53.650;10.090;2024-02-14T03:52:19;5.27;;;1.50;;
78224;SDS011;67498;53.650;10.090;2024-02-14T03:54:46;4.35;;;1.10;;
78224;SDS011;67498;53.650;10.090;2024-02-14T03:57:11;5.03;;;1.03;;
78224;SDS011;67498;53.650;10.090;2024-02-14T03:59:37;5.07;;;0.93;;
78224;SDS011;67498;53.650;10.090;2024-02-14T04:02:05;3.58;;;0.98;;
78224;SDS011;67498;53.650;10.090;2024-02-14T04:04:34;5.10;;;1.30;;
78224;SDS011;67498;53.650;10.090;2024-02-14T04:07:04;8.57;;;1.17;;
78224;SDS011;67498;53.650;10.090;2024-02-14T04:09:29;4.47;;;1.00;;
78224;SDS011;67498;53.650;10.090;2024-02-14T04:11:55;5.93;;;1.20;;
78224;SDS011;67498;53.650;10.090;2024-02-14T04:14:20;5.50;;;1.20;;
78224;SDS011;67498;53.650;10.090;2024-02-14T04:16:46;5.10;;;1.17;;
78224;SDS011;67498;53.650;10.090;2024-02-14T04:19:11;4.53;;;1.27;;
78224;SDS011;67498;53.650;10.090;2024-02-14T04:21:37;6.20;;;2.33;;
78224;SDS011;67498;53.650;10.090;2024-02-14T04:24:03;7.57;;;1.70;;
78224;SDS011;67498;53.650;10.090;2024-02-14T04:26:29;3.60;;;0.93;;
78224;SDS011;67498;53.650;10.090;2024-02-14T04:28:54;6.70;;;1.57;;
78224;SDS011;67498;53.650;10.090;2024-02-14T04:31:19;3.35;;;0.65;;
78224;SDS011;67498;53.650;10.090;2024-02-14T04:33:45;5.53;;;1.13;;
78224;SDS011;67498;53.650;10.090;2024-02-14T04:36:15;4.05;;;1.13;;
78224;SDS011;67498;53.650;10.090;2024-02-14T04:38:41;4.03;;;1.00;;
78224;SDS011;67498;53.650;10.090;2024-02-14T04:41:06;4.40;;;1.07;;
78224;SDS011;67498;53.650;10.090;2024-02-14T04:43:31;4.20;;;1.00;;
78224;SDS011;67498;53.650;10.090;2024-02-14T04:45:56;5.47;;;1.10;;
78224;SDS011;67498;53.650;10.090;2024-02-14T04:48:22;4.60;;;1.10;;
78224;SDS011;67498;53.650;10.090;2024-02-14T04:50:47;4.80;;;0.83;;
78224;SDS011;67498;53.650;10.090;2024-02-14T04:53:12;4.97;;;1.30;;
78224;SDS011;67498;53.650;10.090;2024-02-14T04:55:37;3.67;;;0.90;;
78224;SDS011;67498;53.650;10.090;2024-02-14T04:58:03;2.97;;;0.73;;
78224;SDS011;67498;53.650;10.090;2024-02-14T05:00:29;4.18;;;1.40;;
78224;SDS011;67498;53.650;10.090;2024-02-14T05:02:55;9.40;;;1.60;;
78224;SDS011;67498;53.650;10.090;2024-02-14T05:05:20;6.27;;;1.77;;
78224;SDS011;67498;53.650;10.090;2024-02-14T05:07:45;4.80;;;1.30;;
78224;SDS011;67498;53.650;10.090;2024-02-14T05:10:11;3.80;;;0.93;;
78224;SDS011;67498;53.650;10.090;2024-02-14T05:12:36;3.88;;;1.00;;
78224;SDS011;67498;53.650;10.090;2024-02-14T05:15:02;3.27;;;0.80;;
78224;SDS011;67498;53.650;10.090;2024-02-14T05:17:29;5.72;;;1.42;;
78224;SDS011;67498;53.650;10.090;2024-02-14T05:19:55;3.70;;;0.97;;
78224;SDS011;67498;53.650;10.090;2024-02-14T05:22:20;5.30;;;1.25;;
78224;SDS011;67498;53.650;10.090;2024-02-14T05:24:45;4.10;;;1.10;;
78224;SDS011;67498;53.650;10.090;2024-02-14T05:27:11;9.07;;;1.77;;
78224;SDS011;67498;53.650;10.090;2024-02-14T05:29:36;13.47;;;2.10;;
78224;SDS011;67498;53.650;10.090;2024-02-14T05:32:01;6.37;;;1.67;;
78224;SDS011;67498;53.650;10.090;2024-02-14T05:34:27;5.87;;;1.80;;
78224;SDS011;67498;53.650;10.090;2024-02-14T05:36:52;4.30;;;1.07;;
78224;SDS011;67498;53.650;10.090;2024-02-14T05:39:17;5.83;;;1.63;;
78224;SDS011;67498;53.650;10.090;2024-02-14T05:41:44;4.85;;;1.58;;
78224;SDS011;67498;53.650;10.090;2024-02-14T05:44:09;4.37;;;1.27;;
78224;SDS011;67498;53.650;10.090;2024-02-14T05:46:34;4.60;;;1.70;;
78224;SDS011;67498;53.650;10.090;2024-02-14T05:48:59;4.93;;;1.50;;
78224;SDS011;67498;53.650;10.090;2024-02-14T05:51:25;7.13;;;1.60;;
78224;SDS011;67498;53.650;10.090;2024-02-14T05:53:50;4.80;;;1.40;;
78224;SDS011;67498;53.650;10.090;2024-02-14T05:56:15;4.03;;;1.43;;
78224;SDS011;67498;53.650;10.090;2024-02-14T05:58:41;5.27;;;1.60;;
78224;SDS011;67498;53.650;10.090;2024-02-14T06:01:06;5.87;;;1.77;;
78224;SDS011;67498;53.650;10.090;2024-02-14T06:03:31;5.23;;;1.40;;
78224;SDS011;67498;53.650;10.090;2024-02-14T06:05:57;9.23;;;1.70;;
78224;SDS011;67498;53.650;10.090;2024-02-14T06:08:22;4.27;;;1.13;;
78224;SDS011;67498;53.650;10.090;2024-02-14T06:10:48;3.55;;;1.08;;
78224;SDS011;67498;53.650;10.090;2024-02-14T06:13:14;10.13;;;1.90;;
78224;SDS011;67498;53.650;10.090;2024-02-14T06:15:39;5.27;;;1.90;;
78224;SDS011;67498;53.650;10.090;2024-02-14T06:18:05;6.50;;;1.50;;
78224;SDS011;67498;53.650;10.090;2024-02-14T06:20:30;5.00;;;1.50;;
78224;SDS011;67498;53.650;10.090;2024-02-14T06:22:55;4.07;;;1.20;;
78224;SDS011;67498;53.650;10.090;2024-02-14T06:25:21;5.93;;;1.20;;
78224;SDS011;67498;53.650;10.090;2024-02-14T06:27:46;6.13;;;2.03;;
78224;SDS011;67498;53.650;10.090;2024-02-14T06:30:11;8.43;;;1.83;;
78224;SDS011;67498;53.650;10.090;2024-02-14T06:32:37;4.97;;;1.35;;
78224;SDS011;67498;53.650;10.090;2024-02-14T06:35:02;9.47;;;1.47;;
78224;SDS011;67498;53.650;10.090;2024-02-14T06:37:28;6.10;;;1.93;;
78224;SDS011;67498;53.650;10.090;2024-02-14T06:39:53;5.53;;;1.57;;
78224;SDS011;67498;53.650;10.090;2024-02-14T06:42:18;6.57;;;1.43;;
78224;SDS011;67498;53.650;10.090;2024-02-14T06:44:44;5.18;;;1.77;;
78224;SDS011;67498;53.650;10.090;2024-02-14T06:47:10;5.33;;;1.33;;
78224;SDS011;67498;53.650;10.090;2024-02-14T06:49:35;5.33;;;1.63;;
78224;SDS011;67498;53.650;10.090;2024-02-14T06:52:00;5.37;;;1.50;;
78224;SDS011;67498;53.650;10.090;2024-02-14T06:54:26;5.43;;;1.53;;
78224;SDS011;67498;53.650;10.090;2024-02-14T06:56:51;5.50;;;1.50;;
78224;SDS011;67498;53.650;10.090;2024-02-14T06:59:16;5.27;;;1.40;;
78224;SDS011;67498;53.650;10.090;2024-02-14T07:01:41;5.30;;;1.87;;
78224;SDS011;67498;53.650;10.090;2024-02-14T07:04:07;4.57;;;1.40;;
78224;SDS011;67498;53.650;10.090;2024-02-14T07:06:32;6.50;;;1.63;;
78224;SDS011;67498;53.650;10.090;2024-02-14T07:08:57;4.10;;;1.17;;
78224;SDS011;67498;53.650;10.090;2024-02-14T07:11:23;6.30;;;1.93;;
78224;SDS011;67498;53.650;10.090;2024-02-14T07:13:49;8.00;;;1.58;;
78224;SDS011;67498;53.650;10.090;2024-02-14T07:16:14;5.13;;;1.50;;
78224;SDS011;67498;53.650;10.090;2024-02-14T07:18:39;5.03;;;1.47;;
78224;SDS011;67498;53.650;10.090;2024-02-14T07:21:05;5.00;;;1.63;;
78224;SDS011;67498;53.650;10.090;2024-02-14T07:23:30;5.30;;;1.90;;
78224;SDS011;67498;53.650;10.090;2024-02-14T07:25:56;6.50;;;2.03;;
78224;SDS011;67498;53.650;10.090;2024-02-14T07:28:22;6.03;;;1.87;;
78224;SDS011;67498;53.650;10.090;2024-02-14T07:30:47;5.70;;;1.80;;
78224;SDS011;67498;53.650;10.090;2024-02-14T07:33:12;5.00;;;1.30;;
78224;SDS011;67498;53.650;10.090;2024-02-14T07:35:37;5.30;;;1.97;;
78224;SDS011;67498;53.650;10.090;2024-02-14T07:38:03;5.97;;;1.88;;
78224;SDS011;67498;53.650;10.090;2024-02-14T07:40:28;3.87;;;1.50;;
78224;SDS011;67498;53.650;10.090;2024-02-14T07:42:56;6.85;;;1.67;;
78224;SDS011;67498;53.650;10.090;2024-02-14T07:45:21;7.97;;;2.47;;
78224;SDS011;67498;53.650;10.090;2024-02-14T07:47:48;5.73;;;1.80;;
78224;SDS011;67498;53.650;10.090;2024-02-14T07:50:14;7.05;;;2.25;;
78224;SDS011;67498;53.650;10.090;2024-02-14T07:52:43;3.93;;;1.23;;
78224;SDS011;67498;53.650;10.090;2024-02-14T07:55:09;6.38;;;1.88;;
78224;SDS011;67498;53.650;10.090;2024-02-14T07:57:41;11.57;;;2.45;;
78224;SDS011;67498;53.650;10.090;2024-02-14T08:00:07;6.05;;;2.00;;
78224;SDS011;67498;53.650;10.090;2024-02-14T08:02:33;6.10;;;2.08;;
78224;SDS011;67498;53.650;10.090;2024-02-14T08:04:58;7.00;;;2.17;;
78224;SDS011;67498;53.650;10.090;2024-02-14T08:07:24;4.57;;;1.50;;
78224;SDS011;67498;53.650;10.090;2024-02-14T08:09:49;6.10;;;1.90;;
78224;SDS011;67498;53.650;10.090;2024-02-14T08:12:14;5.37;;;1.63;;
78224;SDS011;67498;53.650;10.090;2024-02-14T08:14:39;6.80;;;2.00;;
78224;SDS011;67498;53.650;10.090;2024-02-14T08:17:05;5.40;;;1.67;;
78224;SDS011;67498;53.650;10.090;2024-02-14T08:19:30;6.37;;;1.87;;
78224;SDS011;67498;53.650;10.090;2024-02-14T08:21:55;5.83;;;2.10;;
78224;SDS011;67498;53.650;10.090;2024-02-14T08:24:26;7.10;;;2.35;;
78224;SDS011;67498;53.650;10.090;2024-02-14T08:26:52;5.25;;;1.73;;
78224;SDS011;67498;53.650;10.090;2024-02-14T08:29:18;5.88;;;1.67;;
78224;SDS011;67498;53.650;10.090;2024-02-14T08:31:43;8.07;;;1.43;;
78224;SDS011;67498;53.650;10.090;2024-02-14T08:34:08;4.93;;;1.60;;
78224;SDS011;67498;53.650;10.090;2024-02-14T08:36:34;5.03;;;1.70;;
78224;SDS011;67498;53.650;10.090;2024-02-14T08:39:06;6.90;;;2.38;;
78224;SDS011;67498;53.650;10.090;2024-02-14T08:41:32;8.75;;;2.30;;
78224;SDS011;67498;53.650;10.090;2024-02-14T08:43:57;7.63;;;2.07;;
78224;SDS011;67498;53.650;10.090;2024-02-14T08:46:22;5.53;;;1.70;;
78224;SDS011;67498;53.650;10.090;2024-02-14T08:48:48;5.23;;;1.60;;
78224;SDS011;67498;53.650;10.090;2024-02-14T08:51:14;5.43;;;1.83;;
78224;SDS011;67498;53.650;10.090;2024-02-14T08:53:39;6.80;;;1.90;;
78224;SDS011;67498;53.650;10.090;2024-02-14T08:56:07;8.43;;;1.67;;
78224;SDS011;67498;53.650;10.090;2024-02-14T08:58:34;7.75;;;2.22;;
78224;SDS011;67498;53.650;10.090;2024-02-14T09:01:00;5.15;;;1.90;;
78224;SDS011;67498;53.650;10.090;2024-02-14T09:03:25;5.60;;;2.20;;
78224;SDS011;67498;53.650;10.090;2024-02-14T09:05:50;5.53;;;1.30;;
78224;SDS011;67498;53.650;10.090;2024-02-14T09:08:17;9.15;;;2.15;;
78224;SDS011;67498;53.650;10.090;2024-02-14T09:10:42;8.47;;;2.17;;
78224;SDS011;67498;53.650;10.090;2024-02-14T09:13:07;7.60;;;1.87;;
78224;SDS011;67498;53.650;10.090;2024-02-14T09:15:34;6.60;;;2.38;;
78224;SDS011;67498;53.650;10.090;2024-02-14T09:17:59;5.47;;;1.87;;
78224;SDS011;67498;53.650;10.090;2024-02-14T09:20:25;6.80;;;2.60;;
78224;SDS011;67498;53.650;10.090;2024-02-14T09:22:51;5.75;;;1.85;;
78224;SDS011;67498;53.650;10.090;2024-02-14T09:25:16;6.60;;;2.47;;
78224;SDS011;67498;53.650;10.090;2024-02-14T09:27:41;8.33;;;2.03;;
78224;SDS011;67498;53.650;10.090;2024-02-14T09:30:08;6.30;;;2.35;;
78224;SDS011;67498;53.650;10.090;2024-02-14T09:32:34;7.33;;;2.27;;
78224;SDS011;67498;53.650;10.090;2024-02-14T09:34:59;10.83;;;2.90;;
78224;SDS011;67498;53.650;10.090;2024-02-14T09:37:25;7.55;;;2.42;;
78224;SDS011;67498;53.650;10.090;2024-02-14T09:39:50;6.43;;;2.40;;
78224;SDS011;67498;53.650;10.090;2024-02-14T09:42:16;6.77;;;2.43;;
78224;SDS011;67498;53.650;10.090;2024-02-14T09:44:44;7.27;;;2.47;;
78224;SDS011;67498;53.650;10.090;2024-02-14T09:47:11;8.15;;;2.42;;
78224;SDS011;67498;53.650;10.090;2024-02-14T09:49:38;7.75;;;2.65;;
78224;SDS011;67498;53.650;10.090;2024-02-14T09:52:04;6.15;;;2.55;;
78224;SDS011;67498;53.650;10.090;2024-02-14T09:54:31;5.63;;;2.33;;
78224;SDS011;67498;53.650;10.090;2024-02-14T09:57:01;6.93;;;2.70;;
78224;SDS011;67498;53.650;10.090;2024-02-14T09:59:27;6.35;;;2.47;;
78224;SDS011;67498;53.650;10.090;2024-02-14T10:01:53;6.72;;;2.28;;
78224;SDS011;67498;53.650;10.090;2024-02-14T10:04:19;7.27;;;2.63;;
78224;SDS011;67498;53.650;10.090;2024-02-14T10:06:45;8.18;;;3.10;;
78224;SDS011;67498;53.650;10.090;2024-02-14T10:09:10;7.87;;;3.20;;
78224;SDS011;67498;53.650;10.090;2024-02-14T10:11:37;7.20;;;2.33;;
78224;SDS011;67498;53.650;10.090;2024-02-14T10:14:04;9.18;;;3.00;;
78224;SDS011;67498;53.650;10.090;2024-02-14T10:16:34;7.20;;;2.38;;
78224;SDS011;67498;53.650;10.090;2024-02-14T10:19:00;8.30;;;2.90;;
78224;SDS011;67498;53.650;10.090;2024-02-14T10:21:25;8.40;;;3.27;;
78224;SDS011;67498;53.650;10.090;2024-02-14T10:23:53;7.47;;;2.60;;
78224;SDS011;67498;53.650;10.090;2024-02-14T10:26:18;6.90;;;2.57;;
78224;SDS011;67498;53.650;10.090;2024-02-14T10:28:44;6.63;;;2.38;;
78224;SDS011;67498;53.650;10.090;2024-02-14T10:31:10;5.72;;;2.35;;
78224;SDS011;67498;53.650;10.090;2024-02-14T10:33:37;10.50;;;2.42;;
78224;SDS011;67498;53.650;10.090;2024-02-14T10:36:02;6.03;;;2.30;;
78224;SDS011;67498;53.650;10.090;2024-02-14T10:38:32;8.23;;;2.65;;
78224;SDS011;67498;53.650;10.090;2024-02-14T10:40:58;6.87;;;2.37;;
78224;SDS011;67498;53.650;10.090;2024-02-14T10:43:25;8.45;;;2.60;;
78224;SDS011;67498;53.650;10.090;2024-02-14T10:45:51;6.50;;;2.40;;
78224;SDS011;67498;53.650;10.090;2024-02-14T10:48:18;6.70;;;1.75;;
78224;SDS011;67498;53.650;10.090;2024-02-14T10:50:47;6.57;;;2.27;;
78224;SDS011;67498;53.650;10.090;2024-02-14T10:53:14;7.38;;;2.25;;
78224;SDS011;67498;53.650;10.090;2024-02-14T10:55:41;10.55;;;2.10;;
78224;SDS011;67498;53.650;10.090;2024-02-14T10:58:11;5.15;;;1.83;;
78224;SDS011;67498;53.650;10.090;2024-02-14T11:00:36;6.30;;;1.57;;
78224;SDS011;67498;53.650;10.090;2024-02-14T11:03:03;7.50;;;1.80;;
78224;SDS011;67498;53.650;10.090;2024-02-14T11:05:29;4.87;;;1.80;;
78224;SDS011;67498;53.650;10.090;2024-02-14T11:07:54;4.28;;;1.13;;
78224;SDS011;67498;53.650;10.090;2024-02-14T11:10:20;4.83;;;1.30;;
78224;SDS011;67498;53.650;10.090;2024-02-14T11:12:47;5.55;;;1.00;;
78224;SDS011;67498;53.650;10.090;2024-02-14T11:17:49;5.93;;;1.10;;
78224;SDS011;67498;53.650;10.090;2024-02-14T11:20:18;4.50;;;1.17;;
78224;SDS011;67498;53.650;10.090;2024-02-14T11:22:57;5.78;;;1.40;;
78224;SDS011;67498;53.650;10.090;2024-02-14T11:25:29;4.30;;;1.17;;
78224;SDS011;67498;53.650;10.090;2024-02-14T11:27:56;5.60;;;1.30;;
78224;SDS011;67498;53.650;10.090;2024-02-14T11:30:28;3.83;;;0.97;;
78224;SDS011;67498;53.650;10.090;2024-02-14T11:33:33;4.95;;;1.13;;
78224;SDS011;67498;53.650;10.090;2024-02-14T11:35:52;7.88;;;0.98;;
78224;SDS011;67498;53.650;10.090;2024-02-14T11:38:21;3.75;;;1.10;;
78224;SDS011;67498;53.650;10.090;2024-02-14T11:40:50;4.80;;;1.27;;
78224;SDS011;67498;53.650;10.090;2024-02-14T11:43:17;4.23;;;1.20;;
78224;SDS011;67498;53.650;10.090;2024-02-14T11:45:45;4.78;;;1.50;;
78224;SDS011;67498;53.650;10.090;2024-02-14T11:48:11;4.93;;;1.50;;
78224;SDS011;67498;53.650;10.090;2024-02-14T11:50:40;6.18;;;1.30;;
78224;SDS011;67498;53.650;10.090;2024-02-14T11:53:08;3.90;;;1.10;;
78224;SDS011;67498;53.650;10.090;2024-02-14T11:55:36;4.30;;;1.23;;
78224;SDS011;67498;53.650;10.090;2024-02-14T11:58:06;4.50;;;1.00;;
78224;SDS011;67498;53.650;10.090;2024-02-14T12:00:37;5.53;;;1.42;;
78224;SDS011;67498;53.650;10.090;2024-02-14T12:03:05;4.97;;;1.38;;
78224;SDS011;67498;53.650;10.090;2024-02-14T12:05:32;5.18;;;1.13;;
78224;SDS011;67498;53.650;10.090;2024-02-14T12:07:58;4.53;;;1.27;;
78224;SDS011;67498;53.650;10.090;2024-02-14T12:10:24;4.45;;;0.85;;
78224;SDS011;67498;53.650;10.090;2024-02-14T12:12:49;4.40;;;1.20;;
78224;SDS011;67498;53.650;10.090;2024-02-14T12:15:15;4.22;;;1.20;;
78224;SDS011;67498;53.650;10.090;2024-02-14T12:17:41;5.17;;;1.30;;
78224;SDS011;67498;53.650;10.090;2024-02-14T12:20:10;5.65;;;1.38;;
78224;SDS011;67498;53.650;10.090;2024-02-14T12:22:39;5.20;;;1.38;;
78224;SDS011;67498;53.650;10.090;2024-02-14T12:25:05;4.87;;;1.47;;
78224;SDS011;67498;53.650;10.090;2024-02-14T12:27:33;5.32;;;1.50;;
78224;SDS011;67498;53.650;10.090;2024-02-14T12:29:59;6.80;;;1.73;;
78224;SDS011;67498;53.650;10.090;2024-02-14T12:32:24;4.17;;;1.07;;
78224;SDS011;67498;53.650;10.090;2024-02-14T12:34:49;5.30;;;1.60;;
78224;SDS011;67498;53.650;10.090;2024-02-14T12:37:15;6.13;;;1.53;;
78224;SDS011;67498;53.650;10.090;2024-02-14T12:39:40;4.83;;;1.30;;
78224;SDS011;67498;53.650;10.090;2024-02-14T12:42:05;5.00;;;1.30;;
78224;SDS011;67498;53.650;10.090;2024-02-14T12:44:31;4.73;;;1.20;;
78224;SDS011;67498;53.650;10.090;2024-02-14T12:46:56;6.20;;;1.70;;
78224;SDS011;67498;53.650;10.090;2024-02-14T12:49:22;5.30;;;1.50;;
78224;SDS011;67498;53.650;10.090;2024-02-14T12:51:51;5.10;;;1.20;;
78224;SDS011;67498;53.650;10.090;2024-02-14T12:54:16;4.70;;;1.20;;
78224;SDS011;67498;53.650;10.090;2024-02-14T12:56:42;4.47;;;1.20;;
78224;SDS011;67498;53.650;10.090;2024-02-14T12:59:07;5.68;;;1.35;;
78224;SDS011;67498;53.650;10.090;2024-02-14T13:01:35;7.60;;;1.70;;
78224;SDS011;67498;53.650;10.090;2024-02-14T13:04:00;4.63;;;1.30;;
78224;SDS011;67498;53.650;10.090;2024-02-14T13:06:27;8.43;;;1.40;;
78224;SDS011;67498;53.650;10.090;2024-02-14T13:08:52;8.68;;;1.50;;
78224;SDS011;67498;53.650;10.090;2024-02-14T13:11:18;4.63;;;1.27;;
78224;SDS011;67498;53.650;10.090;2024-02-14T13:13:44;4.97;;;1.40;;
78224;SDS011;67498;53.650;10.090;2024-02-14T13:16:09;4.37;;;1.30;;
78224;SDS011;67498;53.650;10.090;2024-02-14T13:18:34;6.67;;;1.37;;
78224;SDS011;67498;53.650;10.090;2024-02-14T13:21:00;7.17;;;1.23;;
78224;SDS011;67498;53.650;10.090;2024-02-14T13:23:25;4.75;;;1.30;;
78224;SDS011;67498;53.650;10.090;2024-02-14T13:25:51;4.07;;;1.20;;
78224;SDS011;67498;53.650;10.090;2024-02-14T13:28:16;6.90;;;1.97;;
78224;SDS011;67498;53.650;10.090;2024-02-14T13:30:42;5.57;;;1.60;;
78224;SDS011;67498;53.650;10.090;2024-02-14T13:33:07;6.47;;;1.57;;
78224;SDS011;67498;53.650;10.090;2024-02-14T13:35:34;5.93;;;1.92;;
78224;SDS011;67498;53.650;10.090;2024-02-14T13:38:03;6.22;;;1.63;;
78224;SDS011;67498;53.650;10.090;2024-02-14T13:40:30;5.93;;;1.65;;
78224;SDS011;67498;53.650;10.090;2024-02-14T13:42:55;6.53;;;1.97;;
78224;SDS011;67498;53.650;10.090;2024-02-14T13:45:20;7.17;;;2.10;;
78224;SDS011;67498;53.650;10.090;2024-02-14T13:47:47;6.40;;;1.92;;
78224;SDS011;67498;53.650;10.090;2024-02-14T13:50:12;7.23;;;2.10;;
78224;SDS011;67498;53.650;10.090;2024-02-14T13:52:38;7.07;;;2.10;;
78224;SDS011;67498;53.650;10.090;2024-02-14T13:55:03;7.40;;;2.17;;
78224;SDS011;67498;53.650;10.090;2024-02-14T13:57:30;6.93;;;1.70;;
78224;SDS011;67498;53.650;10.090;2024-02-14T14:00:07;7.75;;;1.88;;
78224;SDS011;67498;53.650;10.090;2024-02-14T14:02:36;7.43;;;2.20;;
78224;SDS011;67498;53.650;10.090;2024-02-14T14:05:06;7.90;;;1.88;;
78224;SDS011;67498;53.650;10.090;2024-02-14T14:07:35;6.20;;;2.10;;
78224;SDS011;67498;53.650;10.090;2024-02-14T14:10:02;6.85;;;2.25;;
78224;SDS011;67498;53.650;10.090;2024-02-14T14:12:28;6.32;;;1.98;;
78224;SDS011;67498;53.650;10.090;2024-02-14T14:14:53;6.57;;;2.00;;
78224;SDS011;67498;53.650;10.090;2024-02-14T14:17:18;6.00;;;1.83;;
78224;SDS011;67498;53.650;10.090;2024-02-14T14:19:44;7.73;;;2.37;;
78224;SDS011;67498;53.650;10.090;2024-02-14T14:22:09;11.37;;;2.50;;
78224;SDS011;67498;53.650;10.090;2024-02-14T14:24:34;6.73;;;2.13;;
78224;SDS011;67498;53.650;10.090;2024-02-14T14:26:59;9.23;;;2.80;;
78224;SDS011;67498;53.650;10.090;2024-02-14T14:29:25;7.60;;;2.45;;